Time;durP1;ratioP1;P1;durP2;ratioP2;P2;SDS_P1;SDS_P2;PMS_P1;PMS_P2;Temp;Humidity;BMP_temperature;BMP_pressure;BME280_temperature;BME280_humidity;BME280_pressure;Samples;Min_cycle;Max_cycle;Signal;HPM_P1;HPM_P2
2024/02/10 00:00:23;;;;;;;44.55;29.92;;;9.20;99.90;;;;;;7369688;19;20122;-74
2024/02/10 00:02:57;;;;;;;46.50;30.80;;;9.20;99.90;;;;;;7367198;19;20006;-75
2024/02/10 00:05:28;;;;;;;45.22;29.50;;;9.20;99.90;;;;;;7369125;19;20827;-74
2024/02/10 00:07:59;;;;;;;40.03;28.33;;;9.20;99.90;;;;;;7366599;19;20026;-74
2024/02/10 00:10:30;;;;;;;35.90;26.77;;;9.20;99.90;;;;;;7370131;19;20006;-74
2024/02/10 00:13:00;;;;;;;32.70;25.10;;;9.30;99.90;;;;;;7370533;19;20015;-74
2024/02/10 00:15:30;;;;;;;35.40;25.75;;;9.20;99.90;;;;;;7370209;19;20479;-75
2024/02/10 00:18:10;;;;;;;38.50;26.58;;;9.30;99.90;;;;;;7367711;19;20039;-75
2024/02/10 00:20:42;;;;;;;35.55;26.13;;;9.20;99.90;;;;;;7364256;19;20079;-74
2024/02/10 00:23:13;;;;;;;34.95;26.65;;;9.20;99.90;;;;;;7367144;19;20014;-74
2024/02/10 00:25:43;;;;;;;41.65;28.95;;;9.30;99.90;;;;;;7368746;19;20030;-75
2024/02/10 00:28:13;;;;;;;38.95;28.55;;;9.30;99.90;;;;;;7369201;19;20036;-73
2024/02/10 00:30:43;;;;;;;37.83;27.95;;;9.40;99.90;;;;;;7368599;19;20010;-74
2024/02/10 00:33:16;;;;;;;37.92;28.33;;;9.30;99.90;;;;;;7369724;19;20018;-75
2024/02/10 00:35:47;;;;;;;39.60;28.90;;;9.30;99.90;;;;;;7375390;19;20015;-73
2024/02/10 00:38:21;;;;;;;37.58;27.98;;;9.20;99.90;;;;;;7375135;19;20026;-73
2024/02/10 00:40:51;;;;;;;38.65;28.95;;;9.30;99.90;;;;;;7375715;19;20018;-73
2024/02/10 00:43:21;;;;;;;43.08;29.40;;;9.20;99.90;;;;;;7373000;19;20023;-73
2024/02/10 00:45:51;;;;;;;38.65;28.60;;;9.30;99.90;;;;;;7374790;19;20015;-74
2024/02/10 00:48:26;;;;;;;33.67;26.25;;;9.30;99.90;;;;;;7375913;19;20017;-73
2024/02/10 00:51:00;;;;;;;38.75;28.42;;;9.30;99.90;;;;;;7376665;19;20045;-74
2024/02/10 00:53:30;;;;;;;;;;;9.20;99.90;;;;;;7375022;19;20439;-74
2024/02/10 00:55:58;;;;;;;35.28;26.63;;;9.20;99.90;;;;;;7374775;19;19922;-74
2024/02/10 00:58:28;;;;;;;33.72;25.70;;;9.20;99.90;;;;;;7376310;19;20051;-74
2024/02/10 01:00:58;;;;;;;36.05;26.50;;;9.20;99.90;;;;;;7376459;19;20482;-74
2024/02/10 01:03:33;;;;;;;42.95;28.30;;;9.20;99.90;;;;;;7374179;19;20022;-74
2024/02/10 01:06:04;;;;;;;40.58;27.90;;;9.30;99.90;;;;;;7374473;19;20010;-74
2024/02/10 01:08:35;;;;;;;42.40;27.13;;;9.20;99.90;;;;;;7374572;19;20014;-74
2024/02/10 01:11:10;;;;;;;40.72;28.00;;;9.20;99.90;;;;;;7377223;19;20018;-74
2024/02/10 01:13:42;;;;;;;37.80;26.98;;;9.10;99.90;;;;;;7370742;19;20006;-75
2024/02/10 01:16:15;;;;;;;35.13;26.50;;;9.20;99.90;;;;;;7375352;19;20014;-74
2024/02/10 01:18:50;;;;;;;33.95;25.08;;;9.30;99.90;;;;;;7375177;19;20542;-73
2024/02/10 01:21:22;;;;;;;33.40;25.10;;;9.30;99.90;;;;;;7376236;19;20367;-74
2024/02/10 01:23:57;;;;;;;35.13;26.17;;;9.30;99.90;;;;;;7373954;19;20591;-73
2024/02/10 01:26:27;;;;;;;37.58;25.45;;;9.30;99.90;;;;;;7376306;19;20014;-73
2024/02/10 01:28:57;;;;;;;34.33;25.88;;;9.30;99.90;;;;;;7374074;19;22411;-74
2024/02/10 01:31:27;;;;;;;37.88;28.30;;;9.30;99.90;;;;;;7375654;19;21925;-75
2024/02/10 01:34:00;;;;;;;35.60;27.75;;;9.30;99.90;;;;;;7373771;19;21147;-75
2024/02/10 01:36:33;;;;;;;35.72;26.25;;;9.40;99.90;;;;;;7375196;19;20369;-74
2024/02/10 01:39:03;;;;;;;37.30;28.15;;;9.30;99.90;;;;;;7375468;19;20038;-74
2024/02/10 01:41:33;;;;;;;38.03;28.58;;;9.30;99.90;;;;;;7375336;19;20018;-75
2024/02/10 01:44:05;;;;;;;34.95;27.08;;;9.40;99.90;;;;;;7371920;19;20007;-74
2024/02/10 01:46:35;;;;;;;40.55;28.98;;;9.40;99.90;;;;;;7373947;19;20010;-74
2024/02/10 01:49:08;;;;;;;37.33;27.88;;;9.30;99.90;;;;;;7375865;19;20011;-74
2024/02/10 01:51:39;;;;;;;36.80;27.70;;;9.30;99.90;;;;;;7373473;19;20082;-74
2024/02/10 01:54:11;;;;;;;36.70;28.30;;;9.30;99.90;;;;;;7372433;19;20053;-76
2024/02/10 01:56:43;;;;;;;34.75;26.13;;;9.30;99.90;;;;;;7373043;19;20014;-75
2024/02/10 01:59:13;;;;;;;32.83;25.77;;;9.30;99.90;;;;;;7374211;19;20029;-74
2024/02/10 02:01:48;;;;;;;37.47;27.10;;;9.30;99.90;;;;;;7373116;19;20397;-75
2024/02/10 02:04:22;;;;;;;34.50;25.85;;;9.30;99.90;;;;;;7372198;19;20018;-74
2024/02/10 02:06:54;;;;;;;33.65;24.38;;;9.30;99.90;;;;;;7373396;19;20030;-75
2024/02/10 02:09:24;;;;;;;32.92;24.75;;;9.30;99.90;;;;;;7374612;19;20723;-75
2024/02/10 02:11:54;;;;;;;32.80;23.30;;;9.40;99.90;;;;;;7371444;19;20013;-75
2024/02/10 02:14:27;;;;;;;30.52;22.88;;;9.30;99.90;;;;;;7372333;19;20014;-75
2024/02/10 02:16:57;;;;;;;31.90;24.33;;;9.40;99.90;;;;;;7373435;19;20737;-75
2024/02/10 02:19:30;;;;;;;31.10;24.27;;;9.40;99.90;;;;;;7373305;19;20019;-75
2024/02/10 02:22:00;;;;;;;32.67;23.98;;;9.30;99.90;;;;;;7372608;19;20006;-74
2024/02/10 02:24:33;;;;;;;33.80;25.90;;;9.30;99.90;;;;;;7373502;19;20021;-73
2024/02/10 02:27:03;;;;;;;40.05;27.13;;;9.20;99.90;;;;;;7373449;19;20022;-73
2024/02/10 02:29:34;;;;;;;34.08;25.42;;;9.20;99.90;;;;;;7373361;19;20010;-73
2024/02/10 02:32:04;;;;;;;34.42;25.40;;;9.20;99.90;;;;;;7371953;19;20074;-74
2024/02/10 02:34:35;;;;;;;36.92;25.75;;;9.20;99.90;;;;;;7374392;19;20344;-74
2024/02/10 02:37:06;;;;;;;34.03;24.58;;;9.20;99.90;;;;;;7371513;19;20041;-75
2024/02/10 02:39:40;;;;;;;33.63;23.92;;;9.20;99.90;;;;;;7373669;19;20392;-74
2024/02/10 02:42:10;;;;;;;39.90;26.52;;;9.20;99.90;;;;;;7366451;19;20090;-74
2024/02/10 02:44:42;;;;;;;41.58;28.15;;;9.20;99.90;;;;;;7371233;19;20853;-74
2024/02/10 02:47:12;;;;;;;46.97;31.10;;;9.30;99.90;;;;;;7373570;19;20007;-74
2024/02/10 02:49:43;;;;;;;43.83;30.33;;;9.30;99.90;;;;;;7375942;19;20015;-74
2024/02/10 02:52:13;;;;;;;45.75;31.00;;;9.30;99.90;;;;;;7371834;19;20401;-75
2024/02/10 02:54:47;;;;;;;44.03;29.25;;;9.40;99.90;;;;;;7373103;19;20450;-75
2024/02/10 02:57:18;;;;;;;43.13;31.02;;;9.40;99.90;;;;;;7371147;19;20024;-74
2024/02/10 02:59:49;;;;;;;43.88;30.45;;;9.40;99.90;;;;;;7373146;19;20090;-74
2024/02/10 03:02:19;;;;;;;43.67;31.17;;;9.40;99.90;;;;;;7370772;19;20021;-74
2024/02/10 03:04:49;;;;;;;47.25;31.52;;;9.30;99.90;;;;;;7371667;19;20046;-73
2024/02/10 03:07:21;;;;;;;43.95;30.92;;;9.30;99.90;;;;;;7371941;19;20021;-75
2024/02/10 03:09:54;;;;;;;48.78;31.75;;;9.20;99.90;;;;;;7372977;19;20027;-74
2024/02/10 03:12:24;;;;;;;47.20;32.15;;;9.20;99.90;;;;;;7370252;19;20030;-74
2024/02/10 03:14:54;;;;;;;46.50;31.77;;;9.20;99.90;;;;;;7371098;19;20021;-75
2024/02/10 03:17:30;;;;;;;49.58;31.70;;;9.10;99.90;;;;;;7370995;19;20842;-74
2024/02/10 03:20:00;;;;;;;54.60;33.38;;;9.10;99.90;;;;;;7370219;19;20014;-75
2024/02/10 03:22:31;;;;;;;54.30;33.63;;;9.00;99.90;;;;;;7369866;19;20527;-75
2024/02/10 03:25:03;;;;;;;51.33;34.03;;;8.90;99.90;;;;;;7371057;19;20084;-73
2024/02/10 03:27:33;;;;;;;55.22;34.58;;;8.90;99.90;;;;;;7370418;19;20024;-74
2024/02/10 03:30:03;;;;;;;49.05;33.15;;;8.80;99.90;;;;;;7371622;19;20014;-73
2024/02/10 03:32:33;;;;;;;67.38;32.78;;;8.80;99.90;;;;;;7369654;19;20014;-73
2024/02/10 03:35:04;;;;;;;192.45;45.00;;;8.70;99.90;;;;;;7371332;19;20006;-73
2024/02/10 03:37:35;;;;;;;173.70;39.80;;;8.70;99.90;;;;;;7371486;19;20455;-76
2024/02/10 03:40:11;;;;;;;119.03;36.40;;;8.70;99.90;;;;;;7370422;19;20014;-74
2024/02/10 03:42:43;;;;;;;412.23;57.83;;;8.70;99.90;;;;;;7364954;19;20462;-75
2024/02/10 03:45:14;;;;;;;179.38;38.13;;;8.60;99.90;;;;;;7370174;19;20018;-73
2024/02/10 03:47:45;;;;;;;206.73;39.40;;;8.50;99.90;;;;;;7370534;19;20037;-74
2024/02/10 03:50:16;;;;;;;68.55;33.63;;;8.60;99.90;;;;;;7370258;19;20019;-73
2024/02/10 03:52:46;;;;;;;152.27;40.85;;;8.60;99.90;;;;;;7368768;19;20014;-73
2024/02/10 03:55:19;;;;;;;66.30;33.88;;;8.60;99.90;;;;;;7370728;19;20007;-74
2024/02/10 03:57:53;;;;;;;55.58;33.20;;;8.60;99.90;;;;;;7370173;19;20007;-74
2024/02/10 04:00:26;;;;;;;57.10;33.55;;;8.60;99.90;;;;;;7371044;19;20362;-74
2024/02/10 04:02:56;;;;;;;72.43;34.75;;;8.60;99.90;;;;;;7367876;19;20007;-74
2024/02/10 04:05:33;;;;;;;54.33;32.15;;;8.50;99.90;;;;;;7370122;19;20038;-75
2024/02/10 04:08:03;;;;;;;47.28;29.65;;;8.50;99.90;;;;;;7369410;19;20006;-74
2024/02/10 04:10:36;;;;;;;47.90;29.20;;;8.40;99.90;;;;;;7370611;19;20483;-73
2024/02/10 04:13:08;;;;;;;44.45;28.23;;;8.40;99.90;;;;;;7367452;19;20018;-74
2024/02/10 04:15:40;;;;;;;50.90;28.38;;;8.40;99.90;;;;;;7368232;19;20010;-75
2024/02/10 04:18:10;;;;;;;71.60;30.52;;;8.30;99.90;;;;;;7366824;19;20010;-73
2024/02/10 04:20:44;;;;;;;69.65;30.83;;;8.40;99.90;;;;;;7371121;19;20420;-73
2024/02/10 04:23:14;;;;;;;95.55;31.88;;;8.40;99.90;;;;;;7363035;19;20035;-73
2024/02/10 04:25:47;;;;;;;146.40;36.33;;;8.40;99.90;;;;;;7368691;19;20018;-75
2024/02/10 04:28:17;;;;;;;94.82;36.33;;;8.40;99.90;;;;;;7368950;19;20043;-74
2024/02/10 04:30:48;;;;;;;48.30;29.95;;;8.40;99.90;;;;;;7369447;19;20031;-74
2024/02/10 04:33:18;;;;;;;54.38;31.65;;;8.40;99.90;;;;;;7365656;19;20021;-74
2024/02/10 04:35:48;;;;;;;59.95;32.08;;;8.50;99.90;;;;;;7367973;19;20007;-74
2024/02/10 04:38:21;;;;;;;72.32;34.67;;;8.50;99.90;;;;;;7368686;19;20014;-74
2024/02/10 04:40:57;;;;;;;60.70;34.80;;;8.50;99.90;;;;;;7367951;19;20499;-74
2024/02/10 04:43:27;;;;;;;57.03;32.65;;;8.50;99.90;;;;;;7366154;19;20025;-74
2024/02/10 04:45:57;;;;;;;76.97;36.53;;;8.50;99.90;;;;;;7366529;19;20035;-73
2024/02/10 04:48:27;;;;;;;90.55;38.47;;;8.50;99.90;;;;;;7367573;19;20040;-73
2024/02/10 04:50:59;;;;;;;57.40;32.70;;;8.50;99.90;;;;;;7367291;19;20050;-73
2024/02/10 04:53:29;;;;;;;64.72;35.13;;;8.50;99.90;;;;;;7366393;19;20010;-74
2024/02/10 04:56:03;;;;;;;60.83;34.95;;;8.50;99.90;;;;;;7368421;19;20102;-74
2024/02/10 04:58:33;;;;;;;90.47;40.10;;;8.40;99.90;;;;;;7368450;19;20730;-74
2024/02/10 05:01:03;;;;;;;62.67;35.30;;;8.50;99.90;;;;;;7368271;19;20482;-74
2024/02/10 05:03:35;;;;;;;55.40;32.85;;;8.50;99.90;;;;;;7366186;19;20019;-74
2024/02/10 05:06:05;;;;;;;73.70;38.20;;;8.50;99.90;;;;;;7367116;19;20014;-74
2024/02/10 05:08:35;;;;;;;77.95;37.28;;;8.50;99.90;;;;;;7367451;19;20526;-74
2024/02/10 05:11:08;;;;;;;119.55;42.55;;;8.40;99.90;;;;;;7367328;19;20347;-74
2024/02/10 05:13:38;;;;;;;121.97;43.03;;;8.40;99.90;;;;;;7365286;19;20455;-74
2024/02/10 05:16:10;;;;;;;114.18;39.65;;;8.40;99.90;;;;;;7369152;19;20014;-73
2024/02/10 05:18:40;;;;;;;111.68;39.25;;;8.40;99.90;;;;;;7368914;19;20021;-74
2024/02/10 05:21:18;;;;;;;95.18;38.25;;;8.40;99.90;;;;;;7374292;19;20040;-74
2024/02/10 05:23:48;;;;;;;343.42;59.60;;;8.40;99.90;;;;;;7371497;19;20014;-73
2024/02/10 05:26:21;;;;;;;140.27;43.05;;;8.40;99.90;;;;;;7376896;19;20470;-74
2024/02/10 05:28:51;;;;;;;144.35;45.03;;;8.40;99.90;;;;;;7375577;19;20455;-73
2024/02/10 05:31:21;;;;;;;110.38;42.85;;;8.40;99.90;;;;;;7375707;19;20019;-73
2024/02/10 05:33:53;;;;;;;127.97;46.85;;;8.40;99.90;;;;;;7372944;19;20416;-73
2024/02/10 05:36:23;;;;;;;82.88;40.70;;;8.40;99.90;;;;;;7374321;19;20039;-74
2024/02/10 05:38:53;;;;;;;73.40;38.25;;;8.40;99.90;;;;;;7375242;19;20016;-74
2024/02/10 05:41:27;;;;;;;67.38;37.25;;;8.50;99.90;;;;;;7374312;19;20014;-74
2024/02/10 05:43:57;;;;;;;;;;;8.50;99.90;;;;;;7374147;19;20013;-74
2024/02/10 05:46:28;;;;;;;63.05;32.17;;;8.40;99.90;;;;;;7373887;19;19926;-73
2024/02/10 05:48:58;;;;;;;61.05;31.75;;;8.30;99.90;;;;;;7374453;19;20018;-74
2024/02/10 05:51:28;;;;;;;56.58;31.35;;;8.30;99.90;;;;;;7373589;19;20014;-73
2024/02/10 05:53:59;;;;;;;60.80;30.13;;;8.40;99.90;;;;;;7372082;19;20011;-74
2024/02/10 05:56:33;;;;;;;56.35;29.42;;;8.30;99.90;;;;;;7374792;19;20085;-74
2024/02/10 05:59:03;;;;;;;58.13;29.25;;;8.30;99.90;;;;;;7374020;19;20347;-73
2024/02/10 06:01:35;;;;;;;58.95;30.35;;;8.30;99.90;;;;;;7374153;19;21734;-73
2024/02/10 06:04:09;;;;;;;63.05;29.83;;;8.30;99.90;;;;;;7373569;19;20416;-74
2024/02/10 06:06:40;;;;;;;65.20;30.88;;;8.30;99.90;;;;;;7374252;19;20101;-74
2024/02/10 06:09:11;;;;;;;65.45;30.73;;;8.20;99.90;;;;;;7371272;19;20007;-74
2024/02/10 06:11:43;;;;;;;64.00;30.70;;;8.20;99.90;;;;;;7370029;19;20042;-73
2024/02/10 06:14:13;;;;;;;59.33;28.58;;;8.30;99.90;;;;;;7373303;19;20027;-74
2024/02/10 06:16:43;;;;;;;74.90;31.50;;;8.30;99.90;;;;;;7372741;19;20010;-74
2024/02/10 06:19:14;;;;;;;95.88;33.17;;;8.30;99.90;;;;;;7370657;19;20086;-74
2024/02/10 06:21:45;;;;;;;104.80;35.75;;;8.30;99.90;;;;;;7371737;19;20050;-73
2024/02/10 06:24:16;;;;;;;113.95;37.50;;;8.30;99.90;;;;;;7371107;19;20010;-75
2024/02/10 06:26:49;;;;;;;149.60;38.88;;;8.30;99.90;;;;;;7373254;19;20053;-74
2024/02/10 06:29:19;;;;;;;482.08;62.90;;;8.20;99.90;;;;;;7372944;19;20388;-73
2024/02/10 06:31:49;;;;;;;143.60;36.65;;;8.20;99.90;;;;;;7369687;19;20014;-75
2024/02/10 06:34:19;;;;;;;124.85;36.83;;;8.20;99.90;;;;;;7372639;19;20371;-73
2024/02/10 06:36:49;;;;;;;76.00;32.42;;;8.20;99.90;;;;;;7373123;19;20035;-74
2024/02/10 06:39:19;;;;;;;137.98;35.90;;;8.30;99.90;;;;;;7371778;19;20025;-72
2024/02/10 06:41:52;;;;;;;313.73;52.08;;;8.20;99.90;;;;;;7370516;19;20454;-72
2024/02/10 06:44:22;;;;;;;237.75;44.13;;;8.20;99.90;;;;;;7372317;19;20006;-73
2024/02/10 06:46:52;;;;;;;159.75;36.95;;;8.20;99.90;;;;;;7370851;19;20010;-73
2024/02/10 06:49:22;;;;;;;213.23;41.33;;;8.10;99.90;;;;;;7372401;19;20015;-74
2024/02/10 06:51:53;;;;;;;213.63;40.33;;;8.20;99.90;;;;;;7369049;19;20735;-73
2024/02/10 06:54:23;;;;;;;271.75;46.15;;;8.20;99.90;;;;;;7371118;19;20018;-73
2024/02/10 06:56:57;;;;;;;257.73;42.78;;;8.20;99.90;;;;;;7370719;19;20078;-73
2024/02/10 06:59:28;;;;;;;249.15;39.75;;;8.20;99.90;;;;;;7371255;19;20018;-74
2024/02/10 07:01:58;;;;;;;326.67;45.60;;;8.20;99.90;;;;;;7368673;19;20015;-73
2024/02/10 07:04:28;;;;;;;354.33;47.50;;;8.20;99.90;;;;;;7369110;19;20006;-73
2024/02/10 07:07:03;;;;;;;373.58;47.05;;;8.20;99.90;;;;;;7370251;19;20024;-72
2024/02/10 07:09:35;;;;;;;;;;;8.20;99.90;;;;;;7372816;19;20030;-73
2024/02/10 07:12:09;;;;;;;440.15;58.00;;;8.20;99.90;;;;;;7368686;19;20330;-74
2024/02/10 07:14:39;;;;;;;443.97;58.50;;;8.20;99.90;;;;;;7371003;19;20002;-74
2024/02/10 07:17:09;;;;;;;324.70;46.78;;;8.20;99.90;;;;;;7370108;19;20396;-73
2024/02/10 07:19:42;;;;;;;264.25;45.20;;;8.20;99.90;;;;;;7372003;19;20014;-72
2024/02/10 07:22:12;;;;;;;268.20;44.33;;;8.10;99.90;;;;;;7370674;19;20066;-74
2024/02/10 07:24:46;;;;;;;492.83;63.47;;;8.20;99.90;;;;;;7370590;19;20006;-76
2024/02/10 07:27:22;;;;;;;139.93;35.85;;;8.10;99.90;;;;;;7373775;19;21382;-72
2024/02/10 07:29:53;;;;;;;264.90;46.20;;;8.20;99.90;;;;;;7369040;19;20014;-72
2024/02/10 07:32:24;;;;;;;215.52;40.85;;;8.20;99.90;;;;;;7370055;19;20272;-73
2024/02/10 07:34:54;;;;;;;111.63;34.83;;;8.10;99.90;;;;;;7369825;19;20045;-72
2024/02/10 07:37:25;;;;;;;80.15;31.88;;;8.20;99.90;;;;;;7370514;19;20015;-73
2024/02/10 07:39:55;;;;;;;81.72;30.90;;;8.30;99.90;;;;;;7370383;19;20021;-73
2024/02/10 07:42:28;;;;;;;75.35;31.15;;;8.40;99.90;;;;;;7367174;19;20014;-72
2024/02/10 07:44:59;;;;;;;75.77;32.60;;;8.30;99.90;;;;;;7371185;19;20857;-73
2024/02/10 07:47:29;;;;;;;74.07;29.88;;;8.30;99.90;;;;;;7370560;19;20089;-72
2024/02/10 07:49:59;;;;;;;71.75;30.50;;;8.40;99.90;;;;;;7370809;19;20014;-73
2024/02/10 07:52:31;;;;;;;69.72;29.35;;;8.40;99.90;;;;;;7368488;19;20010;-73
2024/02/10 07:55:02;;;;;;;70.43;29.90;;;8.30;99.90;;;;;;7369554;19;20487;-73
2024/02/10 07:57:36;;;;;;;65.53;30.63;;;8.30;99.90;;;;;;7369280;19;20010;-73
2024/02/10 08:00:09;;;;;;;;;;;8.40;99.90;;;;;;7372510;19;20267;-74
2024/02/10 08:02:40;;;;;;;62.35;27.92;;;8.40;99.90;;;;;;7372114;19;19931;-73
2024/02/10 08:05:10;;;;;;;63.72;29.52;;;8.50;99.90;;;;;;7370380;19;20046;-73
2024/02/10 08:07:44;;;;;;;70.03;29.02;;;8.40;99.90;;;;;;7368923;19;20053;-73
2024/02/10 08:10:18;;;;;;;77.72;28.60;;;8.50;99.90;;;;;;7370463;19;20014;-74
2024/02/10 08:12:54;;;;;;;64.82;28.77;;;8.50;99.90;;;;;;7363126;19;20031;-73
2024/02/10 08:15:29;;;;;;;;;;;8.50;99.90;;;;;;7367444;19;20544;-73
2024/02/10 08:18:08;;;;;;;94.57;30.48;;;8.50;99.90;;;;;;7369944;19;19986;-74
2024/02/10 08:20:42;;;;;;;61.65;26.55;;;8.30;99.90;;;;;;7370270;19;20049;-73
2024/02/10 08:23:14;;;;;;;50.28;25.85;;;8.50;99.90;;;;;;7367649;19;20027;-73
2024/02/10 08:25:48;;;;;;;48.33;25.35;;;8.50;99.90;;;;;;7369347;19;20471;-74
2024/02/10 08:28:21;;;;;;;48.40;24.85;;;8.60;99.90;;;;;;7371019;19;20014;-73
2024/02/10 08:30:51;;;;;;;47.72;25.45;;;8.50;99.90;;;;;;7367128;19;20869;-73
2024/02/10 08:33:21;;;;;;;43.00;23.60;;;8.70;99.90;;;;;;7367061;19;20018;-73
2024/02/10 08:35:51;;;;;;;47.88;24.10;;;8.70;99.90;;;;;;7367972;19;20003;-73
2024/02/10 08:38:21;;;;;;;43.88;23.55;;;8.80;99.90;;;;;;7367213;19;20021;-74
2024/02/10 08:40:53;;;;;;;58.05;25.08;;;8.80;99.90;;;;;;7368662;19;20018;-73
2024/02/10 08:43:26;;;;;;;57.40;26.55;;;8.70;99.90;;;;;;7365927;19;20015;-74
2024/02/10 08:45:57;;;;;;;121.40;29.52;;;8.60;99.90;;;;;;7368037;19;20020;-73
2024/02/10 08:48:27;;;;;;;103.15;30.88;;;8.70;99.90;;;;;;7366756;19;20882;-73
2024/02/10 08:50:57;;;;;;;107.47;29.23;;;8.60;99.90;;;;;;7365984;19;20007;-73
2024/02/10 08:53:29;;;;;;;96.70;29.50;;;8.50;99.90;;;;;;7366098;19;20018;-74
2024/02/10 08:56:01;;;;;;;93.32;31.10;;;8.50;99.90;;;;;;7375451;19;20018;-74
2024/02/10 08:58:34;;;;;;;66.93;27.23;;;8.60;99.90;;;;;;7376098;19;20010;-73
2024/02/10 09:01:06;;;;;;;79.90;28.83;;;8.60;99.90;;;;;;7374734;19;20122;-73
2024/02/10 09:03:36;;;;;;;57.60;28.55;;;8.50;99.90;;;;;;7372938;19;20011;-73
2024/02/10 09:06:07;;;;;;;72.22;32.45;;;8.50;99.90;;;;;;7374799;19;20010;-74
2024/02/10 09:08:39;;;;;;;50.72;25.65;;;8.70;99.90;;;;;;7372987;19;20740;-74
2024/02/10 09:11:09;;;;;;;51.35;25.40;;;8.90;99.90;;;;;;7375024;19;20018;-74
2024/02/10 09:13:44;;;;;;;46.92;24.95;;;8.80;99.90;;;;;;7372612;19;20021;-73
2024/02/10 09:16:15;;;;;;;43.10;23.38;;;8.80;99.90;;;;;;7373353;19;20090;-73
2024/02/10 09:18:46;;;;;;;40.05;22.45;;;8.90;99.90;;;;;;7373682;19;20505;-75
2024/02/10 09:21:19;;;;;;;47.65;24.15;;;8.90;99.90;;;;;;7375373;19;20046;-74
2024/02/10 09:23:49;;;;;;;37.45;22.17;;;8.90;99.90;;;;;;7371599;19;20014;-74
2024/02/10 09:26:20;;;;;;;37.20;22.00;;;9.00;99.90;;;;;;7372268;19;20029;-75
2024/02/10 09:28:55;;;;;;;34.95;21.63;;;9.00;99.90;;;;;;7371520;19;20021;-73
2024/02/10 09:31:27;;;;;;;37.13;21.92;;;9.00;99.90;;;;;;7374754;19;20452;-75
2024/02/10 09:33:57;;;;;;;33.55;21.17;;;9.20;99.90;;;;;;7371361;19;20014;-74
2024/02/10 09:36:28;;;;;;;33.20;20.65;;;9.10;99.90;;;;;;7372153;19;20010;-75
2024/02/10 09:39:03;;;;;;;33.80;20.83;;;9.10;99.90;;;;;;7368118;19;20531;-73
2024/02/10 09:41:33;;;;;;;29.75;19.33;;;9.40;99.90;;;;;;7371839;19;20007;-72
2024/02/10 09:44:10;;;;;;;29.33;18.58;;;9.40;99.90;;;;;;7373972;19;20126;-73
2024/02/10 09:46:42;;;;;;;34.25;20.35;;;9.30;99.90;;;;;;7370847;19;20024;-74
2024/02/10 09:49:13;;;;;;;36.97;21.90;;;9.30;99.90;;;;;;7371172;19;20014;-73
2024/02/10 09:51:44;;;;;;;36.00;21.65;;;9.30;99.90;;;;;;7369774;19;20018;-74
2024/02/10 09:54:15;;;;;;;39.03;21.52;;;9.40;99.90;;;;;;7371480;19;20016;-73
2024/02/10 09:56:46;;;;;;;35.40;22.00;;;9.40;99.90;;;;;;7372414;19;20026;-73
2024/02/10 09:59:22;;;;;;;35.22;21.65;;;9.30;99.90;;;;;;7372476;19;20017;-73
2024/02/10 10:01:53;;;;;;;35.10;21.55;;;9.40;99.90;;;;;;7371584;19;20029;-73
2024/02/10 10:04:24;;;;;;;32.67;20.88;;;9.30;99.90;;;;;;7372508;19;20044;-73
2024/02/10 10:06:54;;;;;;;31.95;21.13;;;9.30;99.90;;;;;;7369874;19;20006;-73
2024/02/10 10:09:24;;;;;;;30.95;20.92;;;9.30;99.90;;;;;;7371344;19;20022;-72
2024/02/10 10:11:55;;;;;;;35.67;21.85;;;9.30;99.90;;;;;;7369731;19;20161;-71
2024/02/10 10:14:27;;;;;;;34.00;20.60;;;9.40;99.90;;;;;;7371654;19;20031;-73
2024/02/10 10:17:01;;;;;;;30.00;19.73;;;9.30;99.90;;;;;;7371497;19;20040;-72
2024/02/10 10:19:31;;;;;;;32.43;22.27;;;9.40;99.90;;;;;;7371634;19;20401;-73
2024/02/10 10:22:02;;;;;;;34.88;22.05;;;9.30;99.90;;;;;;7370541;19;21341;-73
2024/02/10 10:24:31;;;;;;;34.35;22.60;;;9.30;99.90;;;;;;7371614;19;20483;-72
2024/02/10 10:27:02;;;;;;;34.65;22.45;;;9.40;99.90;;;;;;7372069;19;21394;-72
2024/02/10 10:29:36;;;;;;;31.60;21.92;;;9.30;99.90;;;;;;7367819;19;20036;-73
2024/02/10 10:32:10;;;;;;;31.38;20.92;;;9.30;99.90;;;;;;7367669;19;20018;-72
2024/02/10 10:34:41;;;;;;;30.58;20.83;;;9.30;99.90;;;;;;7373155;19;20018;-72
2024/02/10 10:37:13;;;;;;;35.03;22.60;;;9.40;99.90;;;;;;7371418;19;20010;-75
2024/02/10 10:39:44;;;;;;;35.80;21.55;;;9.40;99.90;;;;;;7373335;19;20115;-73
2024/02/10 10:42:20;;;;;;;32.03;20.33;;;9.40;99.90;;;;;;7367505;19;20094;-73
2024/02/10 10:44:54;;;;;;;29.90;19.42;;;9.50;99.90;;;;;;7367964;19;20439;-73
2024/02/10 10:47:25;;;;;;;30.77;20.10;;;9.70;99.90;;;;;;7369417;19;20010;-73
2024/02/10 10:49:56;;;;;;;29.67;19.58;;;9.70;99.90;;;;;;7372294;19;20081;-73
2024/02/10 10:52:28;;;;;;;30.83;20.38;;;9.70;99.90;;;;;;7369022;19;20026;-73
2024/02/10 10:54:59;;;;;;;36.60;20.60;;;9.50;99.90;;;;;;7368235;19;20122;-72
2024/02/10 10:57:31;;;;;;;32.92;20.20;;;9.60;99.90;;;;;;7369324;19;20014;-74
2024/02/10 11:00:11;;;;;;;30.35;19.30;;;9.40;99.90;;;;;;7368453;19;20450;-72
2024/02/10 11:02:42;;;;;;;31.75;19.58;;;9.40;99.90;;;;;;7368743;19;20020;-73
2024/02/10 11:05:16;;;;;;;34.17;21.10;;;9.40;99.90;;;;;;7370309;19;20090;-72
2024/02/10 11:07:48;;;;;;;32.72;20.67;;;9.50;99.90;;;;;;7369213;19;20103;-72
2024/02/10 11:10:37;;;;;;;28.25;19.60;;;9.40;99.90;;;;;;7369838;19;20011;-73
2024/02/10 11:13:08;;;;;;;31.70;20.10;;;9.40;99.90;;;;;;7369395;19;20006;-72
2024/02/10 11:15:44;;;;;;;29.75;20.50;;;9.50;99.90;;;;;;7370311;19;20046;-72
2024/02/10 11:18:19;;;;;;;26.70;17.65;;;9.50;99.90;;;;;;7370644;19;21158;-72
2024/02/10 11:20:50;;;;;;;26.15;17.45;;;9.40;99.90;;;;;;7370537;19;20002;-72
2024/02/10 11:23:23;;;;;;;22.80;15.93;;;9.40;99.90;;;;;;7367768;19;20088;-72
2024/02/10 11:25:56;;;;;;;23.35;16.45;;;9.50;99.90;;;;;;7368112;19;20008;-72
2024/02/10 11:28:29;;;;;;;23.80;16.02;;;9.50;99.90;;;;;;7368086;19;20019;-71
2024/02/10 11:31:11;;;;;;;24.48;16.02;;;9.50;99.90;;;;;;7369081;19;20535;-72
2024/02/10 11:33:41;;;;;;;18.77;13.43;;;9.50;99.90;;;;;;7367749;19;20321;-73
2024/02/10 11:36:11;;;;;;;18.92;14.38;;;9.60;99.90;;;;;;7368166;19;20474;-71
2024/02/10 11:38:41;;;;;;;20.65;14.27;;;9.40;99.90;;;;;;7369433;19;20014;-73
2024/02/10 11:41:12;;;;;;;25.73;17.33;;;9.40;99.80;;;;;;7368825;19;20458;-72
2024/02/10 11:43:43;;;;;;;23.02;16.15;;;9.50;99.90;;;;;;7368852;19;20018;-71
2024/02/10 11:46:16;;;;;;;22.50;17.52;;;9.40;99.90;;;;;;7368136;19;20018;-71
2024/02/10 11:48:49;;;;;;;26.08;17.98;;;9.50;99.90;;;;;;7368036;19;19999;-72
2024/02/10 11:51:22;;;;;;;25.00;18.10;;;9.50;99.90;;;;;;7366035;19;20051;-72
2024/02/10 11:53:54;;;;;;;27.67;18.10;;;9.60;99.90;;;;;;7364132;19;20080;-72
2024/02/10 11:56:25;;;;;;;22.65;17.27;;;9.60;99.90;;;;;;7368699;19;20783;-71
2024/02/10 11:58:59;;;;;;;25.95;17.65;;;9.60;99.90;;;;;;7367703;19;20366;-72
2024/02/10 12:01:33;;;;;;;23.00;16.20;;;9.60;99.90;;;;;;7366596;19;20653;-73
2024/02/10 12:04:04;;;;;;;;;;;9.80;99.90;;;;;;7366320;19;20010;-72
2024/02/10 12:06:36;;;;;;;23.00;15.55;;;9.70;99.90;;;;;;7365711;19;19927;-71
2024/02/10 12:09:09;;;;;;;26.85;18.45;;;9.70;99.90;;;;;;7367995;19;20082;-73
2024/02/10 12:11:40;;;;;;;19.27;14.63;;;9.90;99.90;;;;;;7367431;19;20018;-71
2024/02/10 12:14:12;;;;;;;24.40;15.80;;;9.90;95.90;;;;;;7367005;19;20086;-72
2024/02/10 12:16:45;;;;;;;25.02;15.77;;;10.00;92.60;;;;;;7367762;19;20018;-72
2024/02/10 12:19:17;;;;;;;23.70;16.65;;;10.10;85.70;;;;;;7366368;19;20495;-72
2024/02/10 12:21:49;;;;;;;19.63;15.13;;;10.20;75.10;;;;;;7362782;19;20023;-71
2024/02/10 12:24:21;;;;;;;16.83;12.85;;;10.40;48.70;;;;;;7365887;19;20024;-71
2024/02/10 12:26:51;;;;;;;18.20;13.50;;;10.20;25.50;;;;;;7366009;19;20017;-72
2024/02/10 12:29:22;;;;;;;15.90;12.68;;;10.30;30.80;;;;;;7369506;19;20093;-72
2024/02/10 12:31:54;;;;;;;19.88;13.13;;;10.40;26.70;;;;;;7370873;19;21343;-72
2024/02/10 12:34:25;;;;;;;19.60;12.73;;;10.40;22.90;;;;;;7373939;19;20011;-71
2024/02/10 12:36:55;;;;;;;14.85;12.68;;;10.60;15.70;;;;;;7374456;19;20082;-72
2024/02/10 12:39:27;;;;;;;15.70;12.75;;;10.60;5.60;;;;;;7375849;19;20459;-72
2024/02/10 12:41:59;;;;;;;17.00;12.30;;;10.50;5.20;;;;;;7366336;19;20026;-72
2024/02/10 12:44:31;;;;;;;18.42;13.00;;;10.50;1.00;;;;;;7374247;19;20022;-72
2024/02/10 12:47:04;;;;;;;16.60;12.02;;;10.50;1.00;;;;;;7373204;19;20019;-72
2024/02/10 12:49:36;;;;;;;17.13;12.88;;;10.50;7.30;;;;;;7369633;19;20010;-73
2024/02/10 12:52:07;;;;;;;15.32;11.52;;;10.50;6.30;;;;;;7370691;19;20007;-73
2024/02/10 12:54:37;;;;;;;15.02;11.65;;;10.30;1.00;;;;;;7372379;19;20019;-73
2024/02/10 12:57:07;;;;;;;23.33;16.90;;;10.40;1.30;;;;;;7372623;19;20021;-72
2024/02/10 12:59:37;;;;;;;19.25;14.20;;;10.20;1.00;;;;;;7371199;19;20467;-72